Time;durP1;ratioP1;P1;durP2;ratioP2;P2;SDS_P1;SDS_P2;PMS_P1;PMS_P2;Temp;Humidity;BMP_temperature;BMP_pressure;BME280_temperature;BME280_humidity;BME280_pressure;Samples;Min_cycle;Max_cycle;Signal;HPM_P1;HPM_P2
2023/10/01 00:00:43;;;;;;;17.90;9.33;;;;;;;;;;5074204;28;20078;-53
2023/10/01 00:03:09;;;;;;;13.85;9.15;;;;;;;;;;5074157;28;20290;-53
2023/10/01 00:05:35;;;;;;;14.82;9.65;;;;;;;;;;5074123;28;20409;-55
2023/10/01 00:08:02;;;;;;;14.00;9.35;;;;;;;;;;5074432;28;20021;-58
2023/10/01 00:10:28;;;;;;;16.13;9.02;;;;;;;;;;5073966;28;20436;-57
2023/10/01 00:12:54;;;;;;;16.30;10.25;;;;;;;;;;5056165;28;20016;-54
2023/10/01 00:15:25;;;;;;;13.82;9.25;;;;;;;;;;5073893;28;20039;-52
2023/10/01 00:17:51;;;;;;;14.45;9.35;;;;;;;;;;5074119;28;20054;-57
2023/10/01 00:22:51;;;;;;;14.32;9.48;;;;;;;;;;5073879;28;20036;-53
2023/10/01 00:25:18;;;;;;;14.02;9.65;;;;;;;;;;5073837;28;20051;-57
2023/10/01 00:27:45;;;;;;;14.02;8.93;;;;;;;;;;5073674;28;20028;-58
2023/10/01 00:30:11;;;;;;;16.27;10.43;;;;;;;;;;5073216;28;20435;-54
2023/10/01 00:32:38;;;;;;;13.90;9.23;;;;;;;;;;5073383;28;20031;-57
2023/10/01 00:35:04;;;;;;;13.55;8.32;;;;;;;;;;5055653;28;20470;-52
2023/10/01 00:37:30;;;;;;;13.70;8.95;;;;;;;;;;5073478;28;20048;-58
2023/10/01 00:39:58;;;;;;;15.10;10.77;;;;;;;;;;5073590;28;20096;-56
2023/10/01 00:42:25;;;;;;;13.50;8.55;;;;;;;;;;5055525;28;20161;-54
2023/10/01 00:44:52;;;;;;;14.40;9.30;;;;;;;;;;5073269;28;20149;-52
2023/10/01 00:47:19;;;;;;;14.40;9.50;;;;;;;;;;5073509;28;20017;-57
2023/10/01 00:49:48;;;;;;;13.57;8.57;;;;;;;;;;5073247;28;20489;-55
2023/10/01 00:52:18;;;;;;;13.77;8.90;;;;;;;;;;5055249;28;20024;-56
2023/10/01 00:54:48;;;;;;;13.90;8.90;;;;;;;;;;5073069;28;20025;-55
2023/10/01 00:57:17;;;;;;;13.80;8.90;;;;;;;;;;5073222;28;20107;-53
2023/10/01 00:59:46;;;;;;;13.68;8.60;;;;;;;;;;5072891;28;20029;-58
2023/10/01 01:02:15;;;;;;;16.55;9.93;;;;;;;;;;5054928;28;20032;-53
2023/10/01 01:04:44;;;;;;;14.10;8.93;;;;;;;;;;5073036;28;20032;-57
2023/10/01 01:07:20;;;;;;;14.10;9.18;;;;;;;;;;5073068;28;20477;-57
2023/10/01 01:09:46;;;;;;;13.57;8.63;;;;;;;;;;5073133;28;20028;-56
2023/10/01 01:12:12;;;;;;;13.80;8.88;;;;;;;;;;5072835;28;20031;-58
2023/10/01 01:14:39;;;;;;;13.70;8.80;;;;;;;;;;5055128;28;20025;-57
2023/10/01 01:17:05;;;;;;;14.55;9.68;;;;;;;;;;5073407;28;20024;-54
2023/10/01 01:19:34;;;;;;;13.95;8.95;;;;;;;;;;5072332;28;20100;-58
2023/10/01 01:22:01;;;;;;;14.00;9.52;;;;;;;;;;5072713;28;20021;-58
2023/10/01 01:24:28;;;;;;;13.70;8.88;;;;;;;;;;5054504;28;20024;-59
2023/10/01 01:27:00;;;;;;;13.77;9.13;;;;;;;;;;5072652;28;20024;-55
2023/10/01 01:29:33;;;;;;;17.25;10.48;;;;;;;;;;5072376;28;20024;-56
2023/10/01 01:32:07;;;;;;;14.85;9.70;;;;;;;;;;5072446;28;20021;-56
2023/10/01 01:34:36;;;;;;;13.85;8.98;;;;;;;;;;5054786;28;20032;-57
2023/10/01 01:37:06;;;;;;;14.30;9.98;;;;;;;;;;5072416;28;20098;-60
2023/10/01 01:39:46;;;;;;;13.90;9.18;;;;;;;;;;5072489;28;20025;-60
2023/10/01 01:42:12;;;;;;;13.68;8.98;;;;;;;;;;5072591;28;20064;-56
2023/10/01 01:44:38;;;;;;;13.77;8.90;;;;;;;;;;5072522;28;20027;-56
2023/10/01 01:47:07;;;;;;;19.27;10.32;;;;;;;;;;5072718;28;20021;-58
2023/10/01 01:49:33;;;;;;;14.18;9.23;;;;;;;;;;5072336;28;20101;-53
2023/10/01 01:52:03;;;;;;;13.90;8.98;;;;;;;;;;5071963;28;20048;-55
2023/10/01 01:54:34;;;;;;;13.77;8.88;;;;;;;;;;5071653;28;20032;-52
2023/10/01 01:57:01;;;;;;;15.57;9.85;;;;;;;;;;5072013;28;20513;-55
2023/10/01 01:59:28;;;;;;;14.63;10.07;;;;;;;;;;5071970;28;20036;-53
2023/10/01 02:01:57;;;;;;;13.40;8.48;;;;;;;;;;5071845;28;20078;-51
2023/10/01 02:04:23;;;;;;;13.73;8.90;;;;;;;;;;5071665;28;20056;-51
2023/10/01 02:06:54;;;;;;;14.38;9.88;;;;;;;;;;5054168;28;20111;-55
2023/10/01 02:09:20;;;;;;;14.85;10.65;;;;;;;;;;5053912;28;20562;-55
2023/10/01 02:11:47;;;;;;;13.55;8.60;;;;;;;;;;5053698;28;20021;-57
2023/10/01 02:14:30;;;;;;;13.75;8.77;;;;;;;;;;5071599;28;20045;-55
2023/10/01 02:17:02;;;;;;;14.23;9.35;;;;;;;;;;5072145;28;20437;-56
2023/10/01 02:19:29;;;;;;;13.65;8.73;;;;;;;;;;5071715;28;20024;-57
2023/10/01 02:22:05;;;;;;;14.15;9.77;;;;;;;;;;5071620;28;20028;-58
2023/10/01 02:24:45;;;;;;;13.90;9.07;;;;;;;;;;5071563;28;20036;-58
2023/10/01 02:27:15;;;;;;;13.70;9.00;;;;;;;;;;5071611;28;20032;-56
2023/10/01 02:32:49;;;;;;;28.48;10.23;;;;;;;;;;5029144;28;20022;-53
2023/10/01 02:35:36;;;;;;;14.02;9.20;;;;;;;;;;5029325;28;20109;-57
2023/10/01 02:38:06;;;;;;;14.52;9.43;;;;;;;;;;5038360;28;20029;-56
2023/10/01 02:40:37;;;;;;;14.10;9.45;;;;;;;;;;5071220;28;20013;-54
2023/10/01 02:43:07;;;;;;;21.55;10.45;;;;;;;;;;5071292;28;20032;-56
2023/10/01 02:45:34;;;;;;;14.20;9.43;;;;;;;;;;5071405;28;20021;-57
2023/10/01 02:48:18;;;;;;;15.40;11.15;;;;;;;;;;5071458;28;20021;-56
2023/10/01 02:50:51;;;;;;;13.68;9.18;;;;;;;;;;5053234;28;20124;-55
2023/10/01 02:53:20;;;;;;;13.95;8.98;;;;;;;;;;5053321;28;20024;-57
2023/10/01 02:55:46;;;;;;;14.25;9.00;;;;;;;;;;5053089;28;20031;-57
2023/10/01 02:58:20;;;;;;;13.68;8.90;;;;;;;;;;5053207;28;20070;-55
2023/10/01 03:00:46;;;;;;;15.75;9.75;;;;;;;;;;5071058;28;20028;-55
2023/10/01 03:03:17;;;;;;;14.57;9.00;;;;;;;;;;5070978;28;20398;-56
2023/10/01 03:05:46;;;;;;;14.10;9.73;;;;;;;;;;5071215;28;20071;-56
2023/10/01 03:08:26;;;;;;;13.80;9.10;;;;;;;;;;5071359;28;20024;-58
2023/10/01 03:10:53;;;;;;;13.90;9.23;;;;;;;;;;5053187;28;20059;-56
2023/10/01 03:13:23;;;;;;;13.80;8.98;;;;;;;;;;5071045;28;20029;-55
2023/10/01 03:18:34;;;;;;;13.45;8.25;;;;;;;;;;5071127;28;20119;-54
2023/10/01 03:21:17;;;;;;;14.00;9.07;;;;;;;;;;5070735;28;20386;-55
2023/10/01 03:23:54;;;;;;;13.82;8.88;;;;;;;;;;5052947;28;20029;-56
2023/10/01 03:26:21;;;;;;;15.98;9.38;;;;;;;;;;5053067;28;20048;-58
2023/10/01 03:31:31;;;;;;;14.45;9.02;;;;;;;;;;5070982;28;20051;-54
2023/10/01 03:33:58;;;;;;;13.80;9.05;;;;;;;;;;5070432;28;20510;-54
2023/10/01 03:36:25;;;;;;;14.55;10.45;;;;;;;;;;5071025;28;20501;-57
2023/10/01 03:38:57;;;;;;;13.63;8.52;;;;;;;;;;5070901;28;20082;-53
2023/10/01 03:41:27;;;;;;;14.45;8.50;;;;;;;;;;5071920;28;20050;-58
2023/10/01 03:44:08;;;;;;;14.90;8.85;;;;;;;;;;5074074;28;20571;-54
2023/10/01 03:46:42;;;;;;;15.10;9.95;;;;;;;;;;5074616;28;20024;-54
2023/10/01 03:51:58;;;;;;;14.20;8.85;;;;;;;;;;5074631;28;20036;-57
2023/10/01 03:54:54;;;;;;;14.13;8.90;;;;;;;;;;5074259;28;20094;-52
2023/10/01 03:57:19;;;;;;;14.65;9.48;;;;;;;;;;5073891;28;20154;-54
2023/10/01 03:59:52;;;;;;;14.52;9.55;;;;;;;;;;5074317;28;20024;-53
2023/10/01 04:02:42;;;;;;;18.15;9.35;;;;;;;;;;5073913;28;20056;-53
2023/10/01 04:05:21;;;;;;;14.02;8.88;;;;;;;;;;5074237;28;20028;-56
2023/10/01 04:07:48;;;;;;;13.80;9.07;;;;;;;;;;5056404;28;20474;-51
2023/10/01 04:13:11;;;;;;;14.05;9.52;;;;;;;;;;5074142;28;20033;-54
2023/10/01 04:15:41;;;;;;;13.55;8.40;;;;;;;;;;5074180;28;20047;-56
2023/10/01 04:20:48;;;;;;;13.63;8.60;;;;;;;;;;5073838;28;20021;-57
2023/10/01 04:23:51;;;;;;;16.05;9.50;;;;;;;;;;5074173;28;20025;-59
2023/10/01 04:26:13;;;;;;;13.90;8.90;;;;;;;;;;5071717;28;20025;-58
2023/10/01 04:28:46;;;;;;;14.55;8.80;;;;;;;;;;5056190;28;20383;-55
2023/10/01 04:31:19;;;;;;;13.50;8.50;;;;;;;;;;5073617;28;20029;-55
2023/10/01 04:33:50;;;;;;;14.70;9.20;;;;;;;;;;5055579;28;20028;-55
2023/10/01 04:36:19;;;;;;;14.07;8.90;;;;;;;;;;5073794;28;20028;-55
2023/10/01 04:38:48;;;;;;;13.63;8.70;;;;;;;;;;5074335;28;20025;-58
2023/10/01 04:41:16;;;;;;;13.45;8.60;;;;;;;;;;5074124;28;20017;-54
2023/10/01 04:43:51;;;;;;;14.02;8.63;;;;;;;;;;5073838;28;20058;-54
2023/10/01 04:46:20;;;;;;;13.90;8.77;;;;;;;;;;5055774;28;20035;-55
2023/10/01 04:48:47;;;;;;;14.75;9.77;;;;;;;;;;5073983;28;20104;-56
2023/10/01 04:51:13;;;;;;;14.38;8.85;;;;;;;;;;5073515;28;20024;-55
2023/10/01 04:53:46;;;;;;;14.02;8.45;;;;;;;;;;5072494;28;20025;-55
2023/10/01 04:56:20;;;;;;;13.55;8.60;;;;;;;;;;5055258;28;20143;-54
2023/10/01 04:58:46;;;;;;;13.80;8.70;;;;;;;;;;5073511;28;20025;-57
2023/10/01 05:01:12;;;;;;;13.50;8.40;;;;;;;;;;5073058;28;20462;-54
2023/10/01 05:03:39;;;;;;;13.50;8.35;;;;;;;;;;5072982;28;20433;-54
2023/10/01 05:06:09;;;;;;;14.20;9.35;;;;;;;;;;5073234;28;20021;-53
2023/10/01 05:08:39;;;;;;;13.55;8.63;;;;;;;;;;5073127;28;20020;-54
2023/10/01 05:11:10;;;;;;;13.48;8.43;;;;;;;;;;5072802;28;20555;-56
2023/10/01 05:13:39;;;;;;;13.45;8.18;;;;;;;;;;5055248;28;20458;-53
2023/10/01 05:16:06;;;;;;;14.70;8.68;;;;;;;;;;5072863;28;20021;-55
2023/10/01 05:18:37;;;;;;;13.70;8.80;;;;;;;;;;5072698;28;20031;-58
2023/10/01 05:21:12;;;;;;;13.88;8.63;;;;;;;;;;5072684;28;20023;-55
2023/10/01 05:23:39;;;;;;;13.80;8.80;;;;;;;;;;5072658;28;20104;-53
2023/10/01 05:26:08;;;;;;;14.65;8.80;;;;;;;;;;5072848;28;20032;-53
2023/10/01 05:28:36;;;;;;;13.90;9.15;;;;;;;;;;5072644;28;20032;-52
2023/10/01 05:31:06;;;;;;;13.57;8.40;;;;;;;;;;5072471;28;20016;-55
2023/10/01 05:33:33;;;;;;;14.98;9.95;;;;;;;;;;5097419;23;20496;-62
2023/10/01 05:36:03;;;;;;;14.07;9.10;;;;;;;;;;5073300;28;20024;-63
2023/10/01 05:38:33;;;;;;;13.48;8.15;;;;;;;;;;5091239;28;20039;-64
2023/10/01 05:41:03;;;;;;;13.40;8.20;;;;;;;;;;5091142;28;20020;-63
2023/10/01 05:43:35;;;;;;;14.60;9.20;;;;;;;;;;5091278;28;20020;-63
2023/10/01 05:46:01;;;;;;;13.40;8.10;;;;;;;;;;5092283;28;20024;-61
2023/10/01 05:48:28;;;;;;;13.60;8.40;;;;;;;;;;5091974;28;20367;-64
2023/10/01 05:50:57;;;;;;;13.75;8.93;;;;;;;;;;5072872;28;20458;-64
2023/10/01 05:53:24;;;;;;;;;;;;;;;;;;5091754;28;20424;-63
2023/10/01 05:55:50;;;;;;;14.38;9.18;;;;;;;;;;5091217;28;19911;-61
2023/10/01 05:58:16;;;;;;;13.50;8.23;;;;;;;;;;5091059;28;20474;-60
2023/10/01 06:00:56;;;;;;;13.57;8.60;;;;;;;;;;5090621;28;20028;-63
2023/10/01 06:03:23;;;;;;;13.45;8.40;;;;;;;;;;5065179;28;20060;-61
2023/10/01 06:05:59;;;;;;;14.27;9.02;;;;;;;;;;5089407;28;20039;-63
2023/10/01 06:08:25;;;;;;;13.57;8.52;;;;;;;;;;5073652;28;20059;-63
2023/10/01 06:11:05;;;;;;;16.42;9.23;;;;;;;;;;5072116;28;20046;-63
2023/10/01 06:13:38;;;;;;;13.60;8.70;;;;;;;;;;5090682;28;20486;-63
2023/10/01 06:16:15;;;;;;;13.95;9.25;;;;;;;;;;5090658;28;20028;-63
2023/10/01 06:18:51;;;;;;;14.93;9.45;;;;;;;;;;5090712;28;20176;-63
2023/10/01 06:21:23;;;;;;;13.73;8.90;;;;;;;;;;5072451;28;20074;-63
2023/10/01 06:23:49;;;;;;;14.02;9.32;;;;;;;;;;5069907;28;20033;-63
2023/10/01 06:26:45;;;;;;;14.52;9.20;;;;;;;;;;5070193;28;20035;-60
2023/10/01 06:29:13;;;;;;;14.00;9.02;;;;;;;;;;5069155;28;20040;-62
2023/10/01 06:34:29;;;;;;;13.65;8.60;;;;;;;;;;5070294;28;20097;-63
2023/10/01 06:36:59;;;;;;;13.55;8.57;;;;;;;;;;5075832;28;20024;-63
2023/10/01 06:39:35;;;;;;;14.00;9.63;;;;;;;;;;5090321;28;20119;-63
2023/10/01 06:42:19;;;;;;;17.23;10.98;;;;;;;;;;5090296;28;20016;-60
2023/10/01 06:44:49;;;;;;;13.45;8.45;;;;;;;;;;5072063;28;20030;-63
2023/10/01 06:47:16;;;;;;;13.95;9.50;;;;;;;;;;5090177;28;20424;-62
2023/10/01 06:49:57;;;;;;;14.63;10.10;;;;;;;;;;5090054;28;20477;-64
2023/10/01 06:52:23;;;;;;;14.57;9.70;;;;;;;;;;5090077;28;20477;-63
2023/10/01 06:54:49;;;;;;;13.77;9.10;;;;;;;;;;5071962;28;20049;-63
2023/10/01 06:57:21;;;;;;;14.00;9.30;;;;;;;;;;5090254;28;20099;-59
2023/10/01 06:59:47;;;;;;;13.75;9.15;;;;;;;;;;5090197;28;20024;-63
2023/10/01 07:02:13;;;;;;;15.02;9.77;;;;;;;;;;5089975;28;20107;-63
2023/10/01 07:04:41;;;;;;;13.90;9.10;;;;;;;;;;5070397;28;20025;-64
2023/10/01 07:07:20;;;;;;;13.80;9.23;;;;;;;;;;5069636;28;20099;-61
2023/10/01 07:09:46;;;;;;;13.98;9.27;;;;;;;;;;5051816;28;20025;-63
2023/10/01 07:12:12;;;;;;;13.75;9.10;;;;;;;;;;5069732;28;20024;-64
2023/10/01 07:14:38;;;;;;;13.73;9.02;;;;;;;;;;5069687;28;20413;-62
2023/10/01 07:17:08;;;;;;;14.30;9.55;;;;;;;;;;5072278;28;20024;-63
2023/10/01 07:19:35;;;;;;;13.82;9.40;;;;;;;;;;5055723;28;20497;-62
2023/10/01 07:22:06;;;;;;;13.68;9.18;;;;;;;;;;5073479;28;20028;-60
2023/10/01 07:24:33;;;;;;;13.77;9.20;;;;;;;;;;5055312;28;20048;-62
2023/10/01 07:27:06;;;;;;;14.52;9.95;;;;;;;;;;5073696;28;20078;-63
2023/10/01 07:29:39;;;;;;;14.00;9.57;;;;;;;;;;5073174;28;20024;-62
2023/10/01 07:32:07;;;;;;;15.38;10.38;;;;;;;;;;5084104;28;20031;-63
2023/10/01 07:34:35;;;;;;;14.45;10.07;;;;;;;;;;5083333;28;20028;-59
2023/10/01 07:37:03;;;;;;;15.75;11.27;;;;;;;;;;5081322;28;20017;-60
2023/10/01 07:39:36;;;;;;;15.48;10.50;;;;;;;;;;5083744;28;20490;-62
2023/10/01 07:42:05;;;;;;;13.98;9.60;;;;;;;;;;5083990;28;20028;-62
2023/10/01 07:44:33;;;;;;;13.80;9.23;;;;;;;;;;5062977;28;20146;-62
2023/10/01 07:47:02;;;;;;;13.73;9.05;;;;;;;;;;5082610;28;20576;-60
2023/10/01 07:49:46;;;;;;;13.70;9.10;;;;;;;;;;5083461;28;20166;-62
2023/10/01 07:52:12;;;;;;;16.58;10.30;;;;;;;;;;5088723;28;20461;-62
2023/10/01 07:54:39;;;;;;;14.30;9.85;;;;;;;;;;5075317;28;20059;-63
2023/10/01 07:57:08;;;;;;;13.82;9.40;;;;;;;;;;5055109;28;20379;-63
2023/10/01 07:59:34;;;;;;;13.80;9.30;;;;;;;;;;5055067;28;20174;-63
2023/10/01 08:05:00;;;;;;;13.90;9.30;;;;;;;;;;5082073;28;20024;-53
2023/10/01 08:07:47;;;;;;;14.07;9.57;;;;;;;;;;5074996;28;20031;-50
2023/10/01 08:10:19;;;;;;;13.77;9.00;;;;;;;;;;5092808;28;20028;-49
2023/10/01 08:15:31;;;;;;;13.93;9.05;;;;;;;;;;5093186;28;20431;-50
2023/10/01 08:18:19;;;;;;;15.05;9.95;;;;;;;;;;5074371;28;20115;-49
2023/10/01 08:20:59;;;;;;;14.82;9.85;;;;;;;;;;5092301;28;20118;-52
2023/10/01 08:23:33;;;;;;;13.85;9.40;;;;;;;;;;5092714;28;20443;-51
2023/10/01 08:28:56;;;;;;;14.10;9.50;;;;;;;;;;5091229;28;20057;-54
2023/10/01 08:34:23;;;;;;;14.15;9.95;;;;;;;;;;5093120;28;20078;-53
2023/10/01 08:36:55;;;;;;;14.40;9.85;;;;;;;;;;5092388;28;20035;-51
2023/10/01 08:39:34;;;;;;;13.60;8.82;;;;;;;;;;5092582;28;20038;-52
2023/10/01 08:42:08;;;;;;;13.93;9.43;;;;;;;;;;5074168;28;20400;-48
2023/10/01 08:44:44;;;;;;;13.88;9.50;;;;;;;;;;5080629;28;20036;-50
2023/10/01 08:53:01;;;;;;;14.18;10.10;;;;;;;;;;5092035;28;20028;-54
2023/10/01 08:55:35;;;;;;;14.25;10.07;;;;;;;;;;5092241;28;20034;-49
2023/10/01 08:58:13;;;;;;;14.57;10.00;;;;;;;;;;5092032;28;20032;-49
2023/10/01 09:00:48;;;;;;;16.65;9.90;;;;;;;;;;5092382;28;20590;-50
2023/10/01 09:03:26;;;;;;;14.02;9.60;;;;;;;;;;5092371;28;20049;-52
2023/10/01 09:06:44;;;;;;;13.93;9.60;;;;;;;;;;5073306;28;20031;-53
2023/10/01 09:08:45;;;;;;;14.18;9.52;;;;;;;;;;5080532;28;20031;-53
2023/10/01 09:11:15;;;;;;;15.35;10.93;;;;;;;;;;5091286;28;20121;-49
2023/10/01 09:13:47;;;;;;;13.95;9.50;;;;;;;;;;5073377;28;20378;-54
2023/10/01 09:16:15;;;;;;;14.07;9.85;;;;;;;;;;5073136;28;20035;-55
2023/10/01 09:19:03;;;;;;;13.93;9.35;;;;;;;;;;5073108;28;20028;-53
2023/10/01 09:21:31;;;;;;;16.73;10.38;;;;;;;;;;5091268;28;20035;-54
2023/10/01 09:24:31;;;;;;;13.93;9.57;;;;;;;;;;5091517;28;20073;-51
2023/10/01 09:26:56;;;;;;;14.68;9.98;;;;;;;;;;5091405;28;20505;-51
2023/10/01 09:29:25;;;;;;;14.82;10.63;;;;;;;;;;5073139;28;20031;-59
2023/10/01 09:31:59;;;;;;;14.23;9.68;;;;;;;;;;5091052;28;20043;-59
2023/10/01 09:34:35;;;;;;;14.10;9.65;;;;;;;;;;5090973;28;20039;-61
2023/10/01 09:37:02;;;;;;;14.20;9.90;;;;;;;;;;5072769;28;20482;-58
2023/10/01 09:39:41;;;;;;;13.80;9.25;;;;;;;;;;5090614;28;20028;-59
2023/10/01 09:42:22;;;;;;;19.58;9.65;;;;;;;;;;5090883;28;20039;-58
2023/10/01 09:44:50;;;;;;;14.23;9.95;;;;;;;;;;5090803;28;20030;-58
2023/10/01 09:47:16;;;;;;;14.10;9.50;;;;;;;;;;5090960;28;20040;-59
2023/10/01 09:49:47;;;;;;;14.52;9.95;;;;;;;;;;5090744;28;20022;-58
2023/10/01 09:52:27;;;;;;;15.45;11.52;;;;;;;;;;5072674;28;20020;-60
2023/10/01 09:55:24;;;;;;;15.25;10.73;;;;;;;;;;5090793;28;20030;-59
2023/10/01 09:57:50;;;;;;;13.80;9.30;;;;;;;;;;5091049;28;20043;-61
2023/10/01 10:00:21;;;;;;;15.30;10.90;;;;;;;;;;5090840;28;20039;-59
2023/10/01 10:02:51;;;;;;;13.93;9.60;;;;;;;;;;5090906;28;20149;-61
2023/10/01 10:05:28;;;;;;;14.40;10.55;;;;;;;;;;5090525;28;20028;-57
2023/10/01 10:07:55;;;;;;;13.85;9.40;;;;;;;;;;5072547;28;20077;-59
2023/10/01 10:10:24;;;;;;;14.30;9.95;;;;;;;;;;5072171;28;20393;-58
2023/10/01 10:12:56;;;;;;;13.80;9.20;;;;;;;;;;5072092;28;20024;-54
2023/10/01 10:15:46;;;;;;;13.88;9.40;;;;;;;;;;5090438;28;20057;-61
2023/10/01 10:18:15;;;;;;;13.85;9.50;;;;;;;;;;5072092;28;20410;-61
2023/10/01 10:21:03;;;;;;;14.48;10.23;;;;;;;;;;5090910;28;20073;-58
2023/10/01 10:23:29;;;;;;;14.00;9.65;;;;;;;;;;5091125;28;20028;-59
2023/10/01 10:26:14;;;;;;;14.30;9.60;;;;;;;;;;5091212;28;20036;-58
2023/10/01 10:28:55;;;;;;;13.90;9.43;;;;;;;;;;5089977;28;20498;-59
2023/10/01 10:31:30;;;;;;;14.73;9.70;;;;;;;;;;5089923;28;20061;-62
2023/10/01 10:34:22;;;;;;;21.20;11.50;;;;;;;;;;5071818;28;20036;-60
2023/10/01 10:36:54;;;;;;;14.07;9.65;;;;;;;;;;5072021;28;20203;-60
2023/10/01 10:39:40;;;;;;;14.05;10.02;;;;;;;;;;5090123;28;20389;-62
2023/10/01 10:42:30;;;;;;;14.27;9.98;;;;;;;;;;5089836;28;20495;-58
2023/10/01 10:45:20;;;;;;;14.93;10.40;;;;;;;;;;5090116;28;20258;-59
2023/10/01 10:47:58;;;;;;;16.70;11.82;;;;;;;;;;5089999;28;20041;-60
2023/10/01 10:50:44;;;;;;;14.10;10.10;;;;;;;;;;5089076;28;20020;-59
2023/10/01 10:53:20;;;;;;;14.45;10.57;;;;;;;;;;5089757;28;20032;-60
2023/10/01 10:55:53;;;;;;;14.05;9.95;;;;;;;;;;5090126;28;20027;-61
2023/10/01 10:58:20;;;;;;;17.02;11.00;;;;;;;;;;5089913;28;20501;-57
2023/10/01 11:00:47;;;;;;;14.40;10.40;;;;;;;;;;5071908;28;20025;-61
2023/10/01 11:03:13;;;;;;;16.02;11.50;;;;;;;;;;5089892;28;20059;-60
2023/10/01 11:05:49;;;;;;;19.58;12.30;;;;;;;;;;5090031;28;20092;-59
2023/10/01 11:08:28;;;;;;;14.60;11.15;;;;;;;;;;5090029;28;20020;-60
2023/10/01 11:10:55;;;;;;;14.70;10.68;;;;;;;;;;5089572;28;20024;-57
2023/10/01 11:13:45;;;;;;;16.77;11.45;;;;;;;;;;5089718;28;20110;-61
2023/10/01 11:16:16;;;;;;;14.35;10.82;;;;;;;;;;5071465;28;20515;-58
2023/10/01 11:18:47;;;;;;;14.50;11.00;;;;;;;;;;5071925;28;20111;-57
2023/10/01 11:21:20;;;;;;;14.20;10.23;;;;;;;;;;5089711;28;20035;-60
2023/10/01 11:23:53;;;;;;;16.65;11.63;;;;;;;;;;5089855;28;20114;-57
2023/10/01 11:26:26;;;;;;;14.30;10.50;;;;;;;;;;5089775;28;20020;-58
2023/10/01 11:28:52;;;;;;;16.35;11.93;;;;;;;;;;5090049;28;20054;-59
2023/10/01 11:31:22;;;;;;;14.27;10.40;;;;;;;;;;5089765;28;20020;-61
2023/10/01 11:33:59;;;;;;;14.43;10.57;;;;;;;;;;5071616;28;20040;-59
2023/10/01 11:36:35;;;;;;;14.35;10.60;;;;;;;;;;5090043;28;20074;-60
2023/10/01 11:39:06;;;;;;;15.00;11.75;;;;;;;;;;5089864;28;20020;-59
2023/10/01 11:41:42;;;;;;;15.07;11.55;;;;;;;;;;5089232;28;20575;-59
2023/10/01 11:44:10;;;;;;;14.30;10.73;;;;;;;;;;5071466;28;20119;-59
2023/10/01 11:46:57;;;;;;;;;;;;;;;;;;5089795;28;20012;-61
2023/10/01 11:49:34;;;;;;;14.75;11.18;;;;;;;;;;5089802;28;19988;-60
2023/10/01 11:52:21;;;;;;;16.17;11.95;;;;;;;;;;5089325;28;20397;-59
2023/10/01 11:54:53;;;;;;;15.98;12.23;;;;;;;;;;5070947;28;20375;-60
2023/10/01 11:57:22;;;;;;;14.80;11.93;;;;;;;;;;5089477;28;20039;-60
2023/10/01 11:59:55;;;;;;;14.77;11.48;;;;;;;;;;5089090;28;20039;-60
2023/10/01 12:02:29;;;;;;;16.02;12.45;;;;;;;;;;5090359;28;20062;-60
2023/10/01 12:04:59;;;;;;;15.63;11.70;;;;;;;;;;5092602;28;20081;-58
2023/10/01 12:07:32;;;;;;;15.10;11.93;;;;;;;;;;5075179;28;20028;-58
2023/10/01 12:09:58;;;;;;;14.90;11.80;;;;;;;;;;5093329;28;20020;-58
2023/10/01 12:12:25;;;;;;;19.30;11.70;;;;;;;;;;5092749;28;20022;-58
2023/10/01 12:17:47;;;;;;;17.20;12.90;;;;;;;;;;5068496;28;20036;-56
2023/10/01 12:20:22;;;;;;;14.73;11.68;;;;;;;;;;5092666;28;20016;-59
2023/10/01 12:23:10;;;;;;;19.98;12.45;;;;;;;;;;5074874;28;20416;-55
2023/10/01 12:25:47;;;;;;;14.70;11.23;;;;;;;;;;5092787;28;20024;-60
2023/10/01 12:28:35;;;;;;;14.38;10.90;;;;;;;;;;5092337;28;20102;-57
2023/10/01 12:31:02;;;;;;;16.05;11.63;;;;;;;;;;5091704;28;20230;-51
2023/10/01 12:33:45;;;;;;;14.48;11.00;;;;;;;;;;5091682;28;20060;-56
2023/10/01 12:41:47;;;;;;;15.10;11.77;;;;;;;;;;5092231;28;20024;-56
2023/10/01 12:44:30;;;;;;;14.80;11.60;;;;;;;;;;5092022;28;20024;-58
2023/10/01 12:47:00;;;;;;;16.63;12.57;;;;;;;;;;5092253;28;20035;-58
2023/10/01 12:49:26;;;;;;;17.10;12.50;;;;;;;;;;5091766;28;20019;-58
2023/10/01 12:51:55;;;;;;;15.07;12.30;;;;;;;;;;5091992;28;20027;-57
2023/10/01 12:54:28;;;;;;;15.18;11.90;;;;;;;;;;5092014;28;20111;-50
2023/10/01 12:57:09;;;;;;;15.27;11.48;;;;;;;;;;5073769;28;20067;-57
2023/10/01 12:59:38;;;;;;;31.88;13.00;;;;;;;;;;5091584;28;20501;-52
2023/10/01 13:02:05;;;;;;;15.77;12.93;;;;;;;;;;5091603;28;20031;-56
2023/10/01 13:04:32;;;;;;;15.45;12.38;;;;;;;;;;5091376;28;20024;-57
2023/10/01 13:07:03;;;;;;;24.15;12.00;;;;;;;;;;5073641;28;20024;-53
2023/10/01 13:12:17;;;;;;;;;;;;;;;;;;5092247;28;20478;-56
2023/10/01 13:15:14;;;;;;;18.33;11.80;;;;;;;;;;5090619;28;19904;-53
2023/10/01 13:17:38;;;;;;;14.60;11.63;;;;;;;;;;5091274;28;20047;-57
2023/10/01 13:20:18;;;;;;;14.77;11.65;;;;;;;;;;5091352;28;20424;-56
2023/10/01 13:22:59;;;;;;;28.77;13.02;;;;;;;;;;5091442;28;20031;-54
2023/10/01 13:25:26;;;;;;;14.95;11.60;;;;;;;;;;5091349;28;20358;-57
2023/10/01 13:28:01;;;;;;;15.70;12.27;;;;;;;;;;5091144;28;20020;-51
2023/10/01 13:33:23;;;;;;;14.70;11.88;;;;;;;;;;5091193;28;20152;-57
2023/10/01 13:35:58;;;;;;;16.63;13.55;;;;;;;;;;5091224;28;20027;-54
2023/10/01 14:11:09;;;;;;;15.23;12.40;;;;;;;;;;5090496;28;20043;-53
2023/10/01 14:13:36;;;;;;;14.77;11.93;;;;;;;;;;5090876;28;20028;-56
2023/10/01 14:16:11;;;;;;;15.05;12.20;;;;;;;;;;5090910;28;20492;-57
2023/10/01 14:19:13;;;;;;;17.63;12.90;;;;;;;;;;5072274;28;20085;-56
2023/10/01 14:21:40;;;;;;;16.17;13.13;;;;;;;;;;5090356;28;20066;-53
2023/10/01 14:24:21;;;;;;;15.32;12.68;;;;;;;;;;5090423;28;20027;-53
2023/10/01 14:26:47;;;;;;;15.45;12.10;;;;;;;;;;5072075;28;20020;-56
2023/10/01 14:29:16;;;;;;;15.30;12.30;;;;;;;;;;5089907;28;20081;-57
2023/10/01 14:31:48;;;;;;;15.80;13.20;;;;;;;;;;5089542;28;20024;-57
2023/10/01 14:34:17;;;;;;;19.48;13.25;;;;;;;;;;5071769;28;20036;-53
2023/10/01 14:36:42;;;;;;;;;;;;;;;;;;5089585;28;20074;-55
2023/10/01 14:39:09;;;;;;;15.00;12.07;;;;;;;;;;5090252;28;20365;-54
2023/10/01 14:41:41;;;;;;;14.60;11.57;;;;;;;;;;5089978;28;20426;-54
2023/10/01 14:44:07;;;;;;;14.52;11.30;;;;;;;;;;5089899;28;20031;-56
2023/10/01 14:46:34;;;;;;;14.75;11.82;;;;;;;;;;5090086;28;20016;-52
2023/10/01 14:49:06;;;;;;;27.08;13.65;;;;;;;;;;5090047;28;20409;-57
2023/10/01 14:51:35;;;;;;;14.80;12.27;;;;;;;;;;5089424;28;20480;-54
2023/10/01 14:54:03;;;;;;;20.42;13.50;;;;;;;;;;5089491;28;20464;-54
2023/10/01 14:56:33;;;;;;;15.20;12.57;;;;;;;;;;5089864;28;20057;-55
2023/10/01 14:59:00;;;;;;;14.80;11.90;;;;;;;;;;5089986;28;20266;-51
2023/10/01 15:01:28;;;;;;;15.65;11.90;;;;;;;;;;5089391;28;20441;-55
2023/10/01 15:03:54;;;;;;;16.38;12.95;;;;;;;;;;5071362;28;20908;-52
2023/10/01 15:06:21;;;;;;;17.27;12.23;;;;;;;;;;5089814;28;20027;-53
2023/10/01 15:08:47;;;;;;;16.33;12.27;;;;;;;;;;5089791;28;20027;-55
2023/10/01 15:11:14;;;;;;;17.42;13.18;;;;;;;;;;5089558;28;20031;-53
2023/10/01 15:13:40;;;;;;;14.70;11.95;;;;;;;;;;5089560;28;20024;-53
2023/10/01 15:16:06;;;;;;;15.10;12.52;;;;;;;;;;5089746;28;20099;-53
2023/10/01 15:18:32;;;;;;;16.38;13.32;;;;;;;;;;5089838;28;20107;-56
2023/10/01 15:21:10;;;;;;;15.15;11.98;;;;;;;;;;5089750;28;20573;-50
2023/10/01 15:23:36;;;;;;;16.00;12.50;;;;;;;;;;5071617;28;20113;-58
2023/10/01 15:26:11;;;;;;;19.55;11.88;;;;;;;;;;5089831;28;20016;-58
2023/10/01 15:28:37;;;;;;;14.50;11.20;;;;;;;;;;5089477;28;20020;-54
2023/10/01 15:31:03;;;;;;;14.80;11.95;;;;;;;;;;5089118;28;20596;-52
2023/10/01 15:33:29;;;;;;;15.57;12.80;;;;;;;;;;5089029;28;20032;-54
2023/10/01 15:35:55;;;;;;;15.13;11.43;;;;;;;;;;5089411;28;20476;-54
2023/10/01 15:38:27;;;;;;;15.18;12.48;;;;;;;;;;5092255;28;20028;-53
2023/10/01 15:40:56;;;;;;;15.40;12.35;;;;;;;;;;5093082;28;20038;-53
2023/10/01 15:43:22;;;;;;;15.85;12.55;;;;;;;;;;4740642;28;10000398;-57
2023/10/01 15:45:51;;;;;;;14.85;11.73;;;;;;;;;;5076395;28;20409;-55
2023/10/01 15:48:17;;;;;;;18.33;12.63;;;;;;;;;;5066696;28;20020;-57
2023/10/01 15:50:49;;;;;;;16.15;11.93;;;;;;;;;;5070101;28;20540;-56
2023/10/01 15:53:19;;;;;;;15.70;12.70;;;;;;;;;;5081178;28;20388;-57
2023/10/01 15:56:02;;;;;;;15.68;11.27;;;;;;;;;;5090144;28;20044;-53
2023/10/01 15:58:28;;;;;;;15.40;12.25;;;;;;;;;;5090345;28;20115;-53
2023/10/01 16:00:56;;;;;;;15.70;12.15;;;;;;;;;;5089897;28;20024;-53
2023/10/01 16:03:31;;;;;;;16.20;13.00;;;;;;;;;;5090043;28;20028;-53
2023/10/01 16:06:08;;;;;;;15.40;12.13;;;;;;;;;;5070926;28;20132;-57
2023/10/01 16:08:35;;;;;;;15.57;12.20;;;;;;;;;;5069760;28;20024;-51
2023/10/01 16:11:04;;;;;;;15.18;11.80;;;;;;;;;;5069543;28;20029;-56
2023/10/01 16:13:31;;;;;;;15.93;12.23;;;;;;;;;;5070553;28;20023;-59
2023/10/01 16:16:01;;;;;;;15.70;11.93;;;;;;;;;;5071544;28;20085;-56
2023/10/01 16:18:38;;;;;;;15.20;12.43;;;;;;;;;;5077668;28;20085;-55